Time;durP1;ratioP1;P1;durP2;ratioP2;P2;SDS_P1;SDS_P2;PMS_P1;PMS_P2;Temp;Humidity;BMP_temperature;BMP_pressure;BME280_temperature;BME280_humidity;BME280_pressure;Samples;Min_cycle;Max_cycle;Signal;HPM_P1;HPM_P2
2022/02/24 00:00:02;;;;;;;;;;;;;;;;;;5050252;28;19944;-47
2022/02/24 00:02:29;;;;;;;;;;;;;;;;;;5049428;28;19916;-46
2022/02/24 00:04:55;;;;;;;;;;;;;;;;;;5048711;28;20428;-46
2022/02/24 00:07:22;;;;;;;;;;;;;;;;;;5045838;28;20763;-48
2022/02/24 00:09:48;;;;;;;;;;;;;;;;;;5049025;28;20011;-43
2022/02/24 00:12:15;;;;;;;;;;;;;;;;;;5049743;28;19913;-45
2022/02/24 00:14:41;;;;;;;;;;;;;;;;;;5048451;28;19917;-51
2022/02/24 00:17:08;;;;;;;;;;;;;;;;;;5049445;28;19913;-62
2022/02/24 00:19:34;;;;;;;;;;;;;;;;;;5044507;28;20003;-44
2022/02/24 00:22:01;;;;;;;;;;;;;;;;;;5049842;28;19917;-57
2022/02/24 00:24:27;;;;;;;;;;;;;;;;;;5049811;28;19917;-55
2022/02/24 00:26:54;;;;;;;;;;;;;;;;;;5049812;28;19909;-60
2022/02/24 00:29:20;;;;;;;;;;;;;;;;;;5048879;28;19916;-57
2022/02/24 00:31:47;;;;;;;;;;;;;;;;;;5031503;28;20290;-61
2022/02/24 00:34:15;;;;;;;;;;;;;;;;;;5050144;28;19995;-62
2022/02/24 00:36:41;;;;;;;;;;;;;;;;;;5049804;28;19999;-56
2022/02/24 00:39:08;;;;;;;;;;;;;;;;;;5049047;28;19979;-57
2022/02/24 00:41:34;;;;;;;;;;;;;;;;;;5048965;28;19924;-53
2022/02/24 00:44:00;;;;;;;;;;;;;;;;;;5049894;28;19962;-54
2022/02/24 00:46:27;;;;;;;;;;;;;;;;;;5050157;28;19924;-52
2022/02/24 00:48:53;;;;;;;;;;;;;;;;;;5047107;28;19909;-54
2022/02/24 00:51:20;;;;;;;;;;;;;;;;;;5050006;28;19923;-55
2022/02/24 00:53:46;;;;;;;;;;;;;;;;;;5049720;28;19916;-48
2022/02/24 00:56:13;;;;;;;;;;;;;;;;;;5049280;28;19909;-52
2022/02/24 00:58:39;;;;;;;;;;;;;;;;;;5045555;28;20348;-52
2022/02/24 01:01:06;;;;;;;;;;;;;;;;;;5049748;28;20003;-51
2022/02/24 01:03:32;;;;;;;;;;;;;;;;;;5053733;28;19912;-51
2022/02/24 01:05:59;;;;;;;;;;;;;;;;;;5053583;28;19909;-52
2022/02/24 01:08:25;;;;;;;;;;;;;;;;;;5050130;28;19961;-55
2022/02/24 01:10:52;;;;;;;;;;;;;;;;;;5051050;28;19909;-52
2022/02/24 01:13:18;;;;;;;;;;;;;;;;;;5053014;28;20363;-51
2022/02/24 01:15:45;;;;;;;;;;;;;;;;;;5052820;28;19909;-54
2022/02/24 01:18:11;;;;;;;;;;;;;;;;;;5049563;28;19920;-55
2022/02/24 01:20:38;;;;;;;;;;;;;;;;;;5053518;28;19909;-53
2022/02/24 01:23:05;;;;;;;;;;;;;;;;;;5052749;28;19917;-56
2022/02/24 01:25:32;;;;;;;;;;;;;;;;;;5052523;28;19940;-53
2022/02/24 01:27:59;;;;;;;;;;;;;;;;;;5050331;28;19909;-54
2022/02/24 01:30:25;;;;;;;;;;;;;;;;;;5053042;28;20343;-52
2022/02/24 01:32:52;;;;;;;;;;;;;;;;;;5052846;28;20386;-56
2022/02/24 01:35:18;;;;;;;;;;;;;;;;;;5052392;28;20314;-59
2022/02/24 01:37:48;;;;;;;;;;;;;;;;;;5049711;28;19913;-56
2022/02/24 01:40:14;;;;;;;;;;;;;;;;;;5051676;28;19967;-56
2022/02/24 01:42:40;;;;;;;;;;;;;;;;;;5051754;28;19964;-54
2022/02/24 01:45:07;;;;;;;;;;;;;;;;;;5052669;28;20472;-56
2022/02/24 01:47:34;;;;;;;;;;;;;;;;;;5049967;28;20359;-59
2022/02/24 01:50:00;;;;;;;;;;;;;;;;;;5052921;28;19909;-59
2022/02/24 01:52:27;;;;;;;;;;;;;;;;;;5052306;28;19955;-60
2022/02/24 01:54:54;;;;;;;;;;;;;;;;;;5052756;28;19909;-58
2022/02/24 01:57:21;;;;;;;;;;;;;;;;;;5031905;28;20334;-55
2022/02/24 01:59:48;;;;;;;;;;;;;;;;;;5051852;28;19939;-57
2022/02/24 02:02:14;;;;;;;;;;;;;;;;;;5052054;28;19928;-56
2022/02/24 02:04:41;;;;;;;;;;;;;;;;;;5052375;28;19909;-53
2022/02/24 02:07:07;;;;;;;;;;;;;;;;;;5050447;28;20367;-58
2022/02/24 02:09:34;;;;;;;;;;;;;;;;;;5050581;28;20378;-56
2022/02/24 02:12:00;;;;;;;;;;;;;;;;;;5052205;28;19917;-56
2022/02/24 02:14:27;;;;;;;;;;;;;;;;;;5051837;28;19913;-55
2022/02/24 02:16:54;;;;;;;;;;;;;;;;;;5052533;28;19916;-59
2022/02/24 02:19:20;;;;;;;;;;;;;;;;;;5049385;28;19909;-58
2022/02/24 02:21:47;;;;;;;;;;;;;;;;;;5051550;28;19917;-58
2022/02/24 02:24:14;;;;;;;;;;;;;;;;;;5052742;28;19920;-59
2022/02/24 02:26:40;;;;;;;;;;;;;;;;;;5052505;28;19915;-59
2022/02/24 02:29:06;;;;;;;;;;;;;;;;;;5049557;28;19978;-57
2022/02/24 02:31:33;;;;;;;;;;;;;;;;;;5052485;28;20266;-56
2022/02/24 02:34:00;;;;;;;;;;;;;;;;;;5052041;28;19909;-58
2022/02/24 02:36:26;;;;;;;;;;;;;;;;;;5051531;28;19909;-56
2022/02/24 02:38:53;;;;;;;;;;;;;;;;;;5049299;28;19913;-58
2022/02/24 02:41:19;;;;;;;;;;;;;;;;;;5052867;28;19919;-56
2022/02/24 02:43:46;;;;;;;;;;;;;;;;;;5051516;28;19913;-55
2022/02/24 02:46:13;;;;;;;;;;;;;;;;;;5051569;28;19995;-54
2022/02/24 02:48:39;;;;;;;;;;;;;;;;;;5049279;28;20318;-58
2022/02/24 02:51:07;;;;;;;;;;;;;;;;;;5051910;28;19909;-59
2022/02/24 02:53:33;;;;;;;;;;;;;;;;;;5049595;28;19913;-56
2022/02/24 02:56:00;;;;;;;;;;;;;;;;;;5051015;28;19923;-54
2022/02/24 02:58:26;;;;;;;;;;;;;;;;;;5047809;28;20004;-56
2022/02/24 03:00:53;;;;;;;;;;;;;;;;;;5053097;28;19924;-63
2022/02/24 03:03:24;;;;;;;;;;;;;;;;;;5052651;28;19927;-56
2022/02/24 03:05:51;;;;;;;;;;;;;;;;;;5053490;28;20378;-57
2022/02/24 03:08:17;;;;;;;;;;;;;;;;;;5046667;28;19909;-52
2022/02/24 03:10:44;;;;;;;;;;;;;;;;;;5050201;28;19966;-55
2022/02/24 03:13:10;;;;;;;;;;;;;;;;;;5050190;28;19916;-59
2022/02/24 03:15:38;;;;;;;;;;;;;;;;;;5049691;28;19915;-56
2022/02/24 03:18:04;;;;;;;;;;;;;;;;;;5050481;28;19913;-56
2022/02/24 03:20:32;;;;;;;;;;;;;;;;;;5050413;28;19995;-55
2022/02/24 03:23:00;;;;;;;;;;;;;;;;;;5049676;28;19971;-58
2022/02/24 03:25:26;;;;;;;;;;;;;;;;;;5030063;28;19944;-56
2022/02/24 03:27:56;;;;;;;;;;;;;;;;;;5049575;28;20278;-57
2022/02/24 03:30:23;;;;;;;;;;;;;;;;;;5050134;28;19912;-59
2022/02/24 03:32:50;;;;;;;;;;;;;;;;;;5050796;28;21458;-54
2022/02/24 03:35:17;;;;;;;;;;;;;;;;;;5047382;28;19939;-51
2022/02/24 03:37:43;;;;;;;;;;;;;;;;;;5049624;28;19935;-57
2022/02/24 03:40:10;;;;;;;;;;;;;;;;;;5049560;28;19923;-63
2022/02/24 03:42:36;;;;;;;;;;;;;;;;;;5049813;28;19917;-57
2022/02/24 03:45:03;;;;;;;;;;;;;;;;;;5047269;28;20387;-53
2022/02/24 03:47:29;;;;;;;;;;;;;;;;;;5048895;28;19909;-56
2022/02/24 03:49:56;;;;;;;;;;;;;;;;;;5049247;28;19926;-53
2022/02/24 03:52:22;;;;;;;;;;;;;;;;;;5049491;28;19966;-58
2022/02/24 03:54:49;;;;;;;;;;;;;;;;;;5050223;28;20325;-58
2022/02/24 03:57:15;;;;;;;;;;;;;;;;;;5046031;28;19909;-53
2022/02/24 03:59:42;;;;;;;;;;;;;;;;;;5048915;28;21290;-54
2022/02/24 04:02:08;;;;;;;;;;;;;;;;;;5049186;28;19924;-59
2022/02/24 04:04:35;;;;;;;;;;;;;;;;;;5049437;28;20006;-49
2022/02/24 04:07:01;;;;;;;;;;;;;;;;;;5045886;28;19952;-55
2022/02/24 04:09:27;;;;;;;;;;;;;;;;;;5031351;28;19985;-55
2022/02/24 04:11:54;;;;;;;;;;;;;;;;;;5049530;28;19916;-55
2022/02/24 04:14:20;;;;;;;;;;;;;;;;;;5048716;28;19913;-55
2022/02/24 04:16:47;;;;;;;;;;;;;;;;;;5046221;28;19908;-54
2022/02/24 04:19:13;;;;;;;;;;;;;;;;;;5049106;28;19909;-59
2022/02/24 04:21:40;;;;;;;;;;;;;;;;;;5048926;28;19920;-55
2022/02/24 04:24:06;;;;;;;;;;;;;;;;;;5048610;28;21160;-60
2022/02/24 04:26:33;;;;;;;;;;;;;;;;;;5047237;28;19993;-51
2022/02/24 04:28:59;;;;;;;;;;;;;;;;;;5049190;28;19913;-56
2022/02/24 04:31:26;;;;;;;;;;;;;;;;;;5048956;28;19952;-56
2022/02/24 04:33:52;;;;;;;;;;;;;;;;;;5048134;28;19908;-61
2022/02/24 04:36:18;;;;;;;;;;;;;;;;;;5045598;28;20034;-55
2022/02/24 04:38:45;;;;;;;;;;;;;;;;;;5030817;28;19909;-56
2022/02/24 04:41:11;;;;;;;;;;;;;;;;;;5048458;28;19916;-53
2022/02/24 04:43:38;;;;;;;;;;;;;;;;;;5048645;28;20007;-57
2022/02/24 04:46:04;;;;;;;;;;;;;;;;;;5046272;28;19948;-55
2022/02/24 04:48:31;;;;;;;;;;;;;;;;;;5049378;28;19909;-56
2022/02/24 04:50:57;;;;;;;;;;;;;;;;;;5048802;28;19938;-54
2022/02/24 04:53:24;;;;;;;;;;;;;;;;;;5031591;28;19939;-54
2022/02/24 04:55:50;;;;;;;;;;;;;;;;;;5046699;28;19935;-57
2022/02/24 04:58:17;;;;;;;;;;;;;;;;;;5049167;28;20373;-55
2022/02/24 05:00:45;;;;;;;;;;;;;;;;;;5048615;28;19936;-57
2022/02/24 05:03:11;;;;;;;;;;;;;;;;;;5049218;28;19943;-62
2022/02/24 05:05:38;;;;;;;;;;;;;;;;;;5046236;28;19915;-58
2022/02/24 05:08:05;;;;;;;;;;;;;;;;;;5048742;28;19909;-57
2022/02/24 05:10:31;;;;;;;;;;;;;;;;;;5049074;28;20008;-58
2022/02/24 05:12:58;;;;;;;;;;;;;;;;;;5049442;28;20262;-55
2022/02/24 05:15:24;;;;;;;;;;;;;;;;;;5046698;28;20092;-56
2022/02/24 05:17:50;;;;;;;;;;;;;;;;;;5048797;28;19913;-57
2022/02/24 05:20:17;;;;;;;;;;;;;;;;;;5049287;28;19909;-58
2022/02/24 05:22:43;;;;;;;;;;;;;;;;;;5048839;28;20328;-57
2022/02/24 05:25:11;;;;;;;;;;;;;;;;;;5028469;28;19927;-58
2022/02/24 05:27:38;;;;;;;;;;;;;;;;;;5047931;28;20043;-53
2022/02/24 05:30:04;;;;;;;;;;;;;;;;;;5048829;28;19909;-55
2022/02/24 05:32:31;;;;;;;;;;;;;;;;;;5049111;28;19913;-58
2022/02/24 05:34:57;;;;;;;;;;;;;;;;;;5047581;28;19916;-55
2022/02/24 05:37:26;;;;;;;;;;;;;;;;;;5047323;28;19966;-57
2022/02/24 05:39:52;;;;;;;;;;;;;;;;;;5047659;28;20022;-60
2022/02/24 05:42:19;;;;;;;;;;;;;;;;;;5049386;28;19974;-62
2022/02/24 05:44:46;;;;;;;;;;;;;;;;;;5048175;28;19921;-62
2022/02/24 05:47:12;;;;;;;;;;;;;;;;;;5045928;28;20252;-62
2022/02/24 05:49:39;;;;;;;;;;;;;;;;;;5052327;28;19920;-61
2022/02/24 05:52:05;;;;;;;;;;;;;;;;;;5052461;28;19909;-58
2022/02/24 05:54:32;;;;;;;;;;;;;;;;;;5051539;28;19963;-60
2022/02/24 05:56:58;;;;;;;;;;;;;;;;;;5049562;28;19916;-57
2022/02/24 05:59:24;;;;;;;;;;;;;;;;;;5052136;28;20335;-58
2022/02/24 06:01:51;;;;;;;;;;;;;;;;;;5033192;28;19988;-55
2022/02/24 06:04:26;;;;;;;;;;;;;;;;;;5052396;28;20122;-60
2022/02/24 06:06:56;;;;;;;;;;;;;;;;;;5047956;28;20301;-59
2022/02/24 06:09:22;;;;;;;;;;;;;;;;;;5052066;28;20359;-55
2022/02/24 06:11:49;;;;;;;;;;;;;;;;;;5052467;28;19923;-58
2022/02/24 06:14:16;;;;;;;;;;;;;;;;;;5052548;28;20421;-54
2022/02/24 06:16:45;;;;;;;;;;;;;;;;;;5050081;28;19909;-60
2022/02/24 06:19:12;;;;;;;;;;;;;;;;;;5051913;28;19913;-62
2022/02/24 06:21:38;;;;;;;;;;;;;;;;;;5050312;28;19923;-61
2022/02/24 06:24:05;;;;;;;;;;;;;;;;;;5051087;28;19908;-61
2022/02/24 06:26:32;;;;;;;;;;;;;;;;;;5048863;28;19966;-58
2022/02/24 06:28:59;;;;;;;;;;;;;;;;;;5034061;28;20367;-61
2022/02/24 06:31:25;;;;;;;;;;;;;;;;;;5052449;28;20016;-58
2022/02/24 06:33:52;;;;;;;;;;;;;;;;;;5052454;28;19913;-50
2022/02/24 06:36:18;;;;;;;;;;;;;;;;;;5048830;28;20375;-58
2022/02/24 06:38:45;;;;;;;;;;;;;;;;;;5051926;28;19909;-60
2022/02/24 06:41:11;;;;;;;;;;;;;;;;;;5051766;28;20342;-61
2022/02/24 06:43:38;;;;;;;;;;;;;;;;;;5052265;28;20009;-57
2022/02/24 06:46:04;;;;;;;;;;;;;;;;;;5048055;28;20298;-54
2022/02/24 06:48:31;;;;;;;;;;;;;;;;;;5033699;28;19917;-61
2022/02/24 06:51:01;;;;;;;;;;;;;;;;;;5051394;28;20363;-62
2022/02/24 06:53:33;;;;;;;;;;;;;;;;;;5049824;28;19963;-56
2022/02/24 06:56:00;;;;;;;;;;;;;;;;;;5048256;28;19920;-60
2022/02/24 06:58:26;;;;;;;;;;;;;;;;;;5051469;28;19916;-59
2022/02/24 07:00:53;;;;;;;;;;;;;;;;;;5032125;28;20247;-61
2022/02/24 07:03:19;;;;;;;;;;;;;;;;;;5051311;28;19932;-59
2022/02/24 07:05:46;;;;;;;;;;;;;;;;;;5048370;28;19960;-54
2022/02/24 07:08:12;;;;;;;;;;;;;;;;;;5051100;28;19908;-54
2022/02/24 07:10:42;;;;;;;;;;;;;;;;;;5049830;28;19924;-55
2022/02/24 07:13:08;;;;;;;;;;;;;;;;;;5048469;28;19909;-59
2022/02/24 07:15:35;;;;;;;;;;;;;;;;;;5048035;28;19952;-59
2022/02/24 07:18:01;;;;;;;;;;;;;;;;;;5050441;28;19909;-58
2022/02/24 07:20:28;;;;;;;;;;;;;;;;;;5032029;28;20295;-56
2022/02/24 07:22:54;;;;;;;;;;;;;;;;;;5048469;28;19928;-59
2022/02/24 07:25:20;;;;;;;;;;;;;;;;;;5048065;28;20047;-58
2022/02/24 07:27:47;;;;;;;;;;;;;;;;;;5049919;28;20397;-62
2022/02/24 07:30:13;;;;;;;;;;;;;;;;;;5050379;28;20287;-59
2022/02/24 07:32:40;;;;;;;;;;;;;;;;;;5050968;28;19919;-54
2022/02/24 07:35:06;;;;;;;;;;;;;;;;;;5049610;28;19909;-58
2022/02/24 07:37:33;;;;;;;;;;;;;;;;;;5048667;28;21029;-57
2022/02/24 07:39:59;;;;;;;;;;;;;;;;;;5050160;28;20480;-57
2022/02/24 07:42:28;;;;;;;;;;;;;;;;;;5050153;28;19917;-59
2022/02/24 07:44:55;;;;;;;;;;;;;;;;;;5049674;28;19924;-57
2022/02/24 07:47:21;;;;;;;;;;;;;;;;;;5048194;28;19951;-54
2022/02/24 07:49:47;;;;;;;;;;;;;;;;;;5050896;28;19916;-58
2022/02/24 07:52:14;;;;;;;;;;;;;;;;;;5050140;28;20270;-56
2022/02/24 07:54:40;;;;;;;;;;;;;;;;;;5052882;28;19909;-61
2022/02/24 07:57:07;;;;;;;;;;;;;;;;;;5053331;28;19909;-66
2022/02/24 07:59:33;;;;;;;;;;;;;;;;;;5053462;28;20424;-65
2022/02/24 08:02:01;;;;;;;;;;;;;;;;;;5048910;28;20279;-63
2022/02/24 08:04:28;;;;;;;;;;;;;;;;;;5047595;28;19956;-61
2022/02/24 08:06:54;;;;;;;;;;;;;;;;;;5052890;28;19909;-67
2022/02/24 08:09:21;;;;;;;;;;;;;;;;;;5052817;28;20259;-65
2022/02/24 08:12:38;;;;;;;;;;;;;;;;;;5052118;28;19931;-62
2022/02/24 08:14:34;;;;;;;;;;;;;;;;;;5052854;28;19913;-66
2022/02/24 08:17:00;;;;;;;;;;;;;;;;;;5052731;28;20373;-66
2022/02/24 08:19:27;;;;;;;;;;;;;;;;;;5052674;28;19909;-69
2022/02/24 08:21:53;;;;;;;;;;;;;;;;;;5052578;28;19913;-68
2022/02/24 08:24:19;;;;;;;;;;;;;;;;;;5053196;28;19916;-66
2022/02/24 08:26:46;;;;;;;;;;;;;;;;;;5052531;28;19909;-63
2022/02/24 08:29:12;;;;;;;;;;;;;;;;;;5052503;28;20382;-64
2022/02/24 08:31:39;;;;;;;;;;;;;;;;;;5052045;28;20401;-66
2022/02/24 08:34:05;;;;;;;;;;;;;;;;;;5052157;28;20278;-64
2022/02/24 08:36:32;;;;;;;;;;;;;;;;;;5052515;28;19966;-64
2022/02/24 08:38:58;;;;;;;;;;;;;;;;;;5052245;28;19915;-66
2022/02/24 08:41:25;;;;;;;;;;;;;;;;;;5052445;28;19920;-69
2022/02/24 08:43:51;;;;;;;;;;;;;;;;;;5052669;28;19920;-64
2022/02/24 08:46:17;;;;;;;;;;;;;;;;;;5052405;28;19953;-65
2022/02/24 08:48:44;;;;;;;;;;;;;;;;;;5052384;28;19905;-63
2022/02/24 08:51:13;;;;;;;;;;;;;;;;;;5051419;28;20350;-65
2022/02/24 08:53:40;;;;;;;;;;;;;;;;;;5050750;28;19912;-61
2022/02/24 08:56:06;;;;;;;;;;;;;;;;;;5052309;28;19909;-63
2022/02/24 08:58:33;;;;;;;;;;;;;;;;;;5052299;28;19949;-64
2022/02/24 09:00:59;;;;;;;;;;;;;;;;;;5052546;28;19909;-66
2022/02/24 09:03:26;;;;;;;;;;;;;;;;;;5052328;28;20374;-66
2022/02/24 09:05:52;;;;;;;;;;;;;;;;;;5051884;28;19908;-63
2022/02/24 09:08:19;;;;;;;;;;;;;;;;;;5053195;28;19941;-70
2022/02/24 09:10:45;;;;;;;;;;;;;;;;;;5052765;28;19909;-66
2022/02/24 09:13:12;;;;;;;;;;;;;;;;;;5052067;28;19913;-60
2022/02/24 09:15:38;;;;;;;;;;;;;;;;;;5051688;28;20015;-59
2022/02/24 09:18:05;;;;;;;;;;;;;;;;;;5052753;28;19978;-56
2022/02/24 09:20:32;;;;;;;;;;;;;;;;;;5051914;28;19943;-57
2022/02/24 09:23:07;;;;;;;;;;;;;;;;;;5053507;28;19917;-60
2022/02/24 09:25:34;;;;;;;;;;;;;;;;;;5056322;28;19908;-58
2022/02/24 09:28:03;;;;;;;;;;;;;;;;;;5037917;28;19936;-59
2022/02/24 09:30:29;;;;;;;;;;;;;;;;;;5056555;28;19913;-61
2022/02/24 09:32:56;;;;;;;;;;;;;;;;;;5056897;28;19955;-57
2022/02/24 09:35:22;;;;;;;;;;;;;;;;;;5049376;28;19967;-61
2022/02/24 09:37:49;;;;;;;;;;;;;;;;;;5050508;28;21582;-58
2022/02/24 09:40:18;;;;;;;;;;;;;;;;;;5053059;28;19916;-59
2022/02/24 09:42:45;;;;;;;;;;;;;;;;;;5050908;28;19916;-57
2022/02/24 09:45:11;;;;;;;;;;;;;;;;;;5049118;28;19928;-54
2022/02/24 09:47:38;;;;;;;;;;;;;;;;;;5034280;28;19909;-56
2022/02/24 09:50:04;;;;;;;;;;;;;;;;;;5050388;28;19915;-51
2022/02/24 09:52:30;;;;;;;;;;;;;;;;;;5050228;28;19917;-58
2022/02/24 09:55:00;;;;;;;;;;;;;;;;;;5051289;28;19916;-55
2022/02/24 09:57:26;;;;;;;;;;;;;;;;;;5049709;28;19943;-55
2022/02/24 09:59:56;;;;;;;;;;;;;;;;;;5050257;28;19916;-56
2022/02/24 10:02:22;;;;;;;;;;;;;;;;;;5052027;28;19917;-59
2022/02/24 10:04:49;;;;;;;;;;;;;;;;;;5048108;28;19916;-59
2022/02/24 10:07:16;;;;;;;;;;;;;;;;;;5031845;28;19909;-57
2022/02/24 10:09:42;;;;;;;;;;;;;;;;;;5052338;28;19913;-53
2022/02/24 10:12:09;;;;;;;;;;;;;;;;;;5051816;28;19909;-58
2022/02/24 10:14:35;;;;;;;;;;;;;;;;;;5048876;28;19909;-55
2022/02/24 10:17:04;;;;;;;;;;;;;;;;;;5052301;28;20374;-58
2022/02/24 10:19:30;;;;;;;;;;;;;;;;;;5052284;28;19931;-57
2022/02/24 10:21:57;;;;;;;;;;;;;;;;;;5051521;28;20419;-60
2022/02/24 10:24:24;;;;;;;;;;;;;;;;;;5048989;28;20421;-59
2022/02/24 10:26:50;;;;;;;;;;;;;;;;;;5052383;28;20007;-56
2022/02/24 10:29:21;;;;;;;;;;;;;;;;;;5052315;28;20359;-58
2022/02/24 10:31:48;;;;;;;;;;;;;;;;;;5051384;28;19909;-54
2022/02/24 10:34:17;;;;;;;;;;;;;;;;;;5048761;28;19912;-52
2022/02/24 10:36:43;;;;;;;;;;;;;;;;;;5052295;28;19916;-57
2022/02/24 10:39:10;;;;;;;;;;;;;;;;;;5051273;28;19916;-56
2022/02/24 10:41:37;;;;;;;;;;;;;;;;;;5052158;28;20367;-54
2022/02/24 10:44:03;;;;;;;;;;;;;;;;;;5048698;28;19956;-57
2022/02/24 10:46:30;;;;;;;;;;;;;;;;;;5052008;28;20274;-56
2022/02/24 10:48:57;;;;;;;;;;;;;;;;;;5051353;28;20366;-57
2022/02/24 10:51:24;;;;;;;;;;;;;;;;;;5050058;28;20024;-56
2022/02/24 10:53:50;;;;;;;;;;;;;;;;;;5050576;28;19944;-56
2022/02/24 10:56:17;;;;;;;;;;;;;;;;;;5051914;28;19916;-60
2022/02/24 10:58:43;;;;;;;;;;;;;;;;;;5051056;28;19909;-58
2022/02/24 11:01:10;;;;;;;;;;;;;;;;;;5051846;28;20417;-58
2022/02/24 11:03:36;;;;;;;;;;;;;;;;;;5051964;28;19913;-61
2022/02/24 11:06:03;;;;;;;;;;;;;;;;;;5047766;28;19912;-53
2022/02/24 11:08:29;;;;;;;;;;;;;;;;;;5052273;28;19916;-57
2022/02/24 11:10:56;;;;;;;;;;;;;;;;;;5033202;28;19953;-54
2022/02/24 11:13:22;;;;;;;;;;;;;;;;;;5050823;28;19913;-55
2022/02/24 11:15:49;;;;;;;;;;;;;;;;;;5047614;28;19909;-53
2022/02/24 11:18:15;;;;;;;;;;;;;;;;;;5049909;28;19939;-55
2022/02/24 11:20:42;;;;;;;;;;;;;;;;;;5051002;28;19928;-56
2022/02/24 11:23:08;;;;;;;;;;;;;;;;;;5050882;28;19924;-56
2022/02/24 11:25:34;;;;;;;;;;;;;;;;;;5048009;28;19999;-57
2022/02/24 11:28:01;;;;;;;;;;;;;;;;;;5050856;28;19916;-56
2022/02/24 11:30:28;;;;;;;;;;;;;;;;;;5050799;28;20344;-59
2022/02/24 11:32:56;;;;;;;;;;;;;;;;;;5050433;28;19970;-55
2022/02/24 11:35:22;;;;;;;;;;;;;;;;;;5047737;28;20393;-54
2022/02/24 11:37:50;;;;;;;;;;;;;;;;;;5050077;28;19916;-52
2022/02/24 11:40:16;;;;;;;;;;;;;;;;;;5051186;28;19915;-54
2022/02/24 11:42:42;;;;;;;;;;;;;;;;;;5049717;28;20011;-57
2022/02/24 11:45:09;;;;;;;;;;;;;;;;;;5047280;28;19928;-56
2022/02/24 11:47:35;;;;;;;;;;;;;;;;;;5050672;28;19944;-58
2022/02/24 11:50:02;;;;;;;;;;;;;;;;;;5049927;28;19913;-61
2022/02/24 11:52:29;;;;;;;;;;;;;;;;;;5050940;28;20397;-58
2022/02/24 11:54:55;;;;;;;;;;;;;;;;;;5048183;28;19909;-60
2022/02/24 11:57:22;;;;;;;;;;;;;;;;;;5051177;28;19913;-56
2022/02/24 11:59:48;;;;;;;;;;;;;;;;;;5049802;28;19909;-58
2022/02/24 12:02:15;;;;;;;;;;;;;;;;;;5032740;28;20278;-57
2022/02/24 12:04:41;;;;;;;;;;;;;;;;;;5047679;28;19912;-59
2022/02/24 12:07:08;;;;;;;;;;;;;;;;;;5050732;28;20017;-59
2022/02/24 12:09:35;;;;;;;;;;;;;;;;;;5049425;28;19908;-57
2022/02/24 12:12:01;;;;;;;;;;;;;;;;;;5050501;28;19931;-52
2022/02/24 12:14:28;;;;;;;;;;;;;;;;;;5047553;28;19909;-57
2022/02/24 12:16:54;;;;;;;;;;;;;;;;;;5031497;28;19908;-56
2022/02/24 12:19:21;;;;;;;;;;;;;;;;;;5050060;28;20379;-57
2022/02/24 12:21:49;;;;;;;;;;;;;;;;;;5049858;28;20254;-57
2022/02/24 12:24:18;;;;;;;;;;;;;;;;;;5046953;28;19994;-59
2022/02/24 12:26:44;;;;;;;;;;;;;;;;;;5049468;28;19920;-59
2022/02/24 12:29:11;;;;;;;;;;;;;;;;;;5050175;28;19962;-57
2022/02/24 12:31:37;;;;;;;;;;;;;;;;;;5050084;28;19940;-54
2022/02/24 12:34:04;;;;;;;;;;;;;;;;;;5046971;28;19917;-56
2022/02/24 12:36:30;;;;;;;;;;;;;;;;;;5049816;28;20016;-56
2022/02/24 12:38:57;;;;;;;;;;;;;;;;;;5049683;28;20335;-59
2022/02/24 12:41:23;;;;;;;;;;;;;;;;;;5050160;28;20251;-56
2022/02/24 12:43:50;;;;;;;;;;;;;;;;;;5047372;28;20278;-58
2022/02/24 12:46:16;;;;;;;;;;;;;;;;;;5048829;28;19928;-58
2022/02/24 12:48:42;;;;;;;;;;;;;;;;;;5050120;28;19908;-58
2022/02/24 12:51:10;;;;;;;;;;;;;;;;;;5050210;28;19940;-61
2022/02/24 12:53:37;;;;;;;;;;;;;;;;;;5049493;28;20314;-59
2022/02/24 12:56:04;;;;;;;;;;;;;;;;;;5048392;28;19994;-54
2022/02/24 12:58:32;;;;;;;;;;;;;;;;;;5052955;28;19908;-57
2022/02/24 13:01:02;;;;;;;;;;;;;;;;;;5053540;28;19952;-58
2022/02/24 13:03:28;;;;;;;;;;;;;;;;;;5051504;28;19927;-55
2022/02/24 13:05:55;;;;;;;;;;;;;;;;;;5051043;28;19964;-52
2022/02/24 13:11:06;;;;;;;;;;;;;;;;;;5052744;28;19916;-56
2022/02/24 13:13:32;;;;;;;;;;;;;;;;;;5053716;28;20370;-55
2022/02/24 13:16:02;;;;;;;;;;;;;;;;;;5051055;28;19924;-60
2022/02/24 13:18:29;;;;;;;;;;;;;;;;;;5051524;28;19921;-60
2022/02/24 13:20:55;;;;;;;;;;;;;;;;;;5056532;28;19909;-60
2022/02/24 13:23:23;;;;;;;;;;;;;;;;;;5056394;28;19974;-60
2022/02/24 13:25:49;;;;;;;;;;;;;;;;;;5056456;28;19909;-62
2022/02/24 13:28:16;;;;;;;;;;;;;;;;;;5056423;28;20003;-56
2022/02/24 13:30:42;;;;;;;;;;;;;;;;;;5056424;28;19913;-58
2022/02/24 13:33:08;;;;;;;;;;;;;;;;;;5056181;28;20347;-57
2022/02/24 13:35:35;;;;;;;;;;;;;;;;;;5056148;28;20359;-61
2022/02/24 13:38:05;;;;;;;;;;;;;;;;;;5056230;28;20321;-62
2022/02/24 13:40:32;;;;;;;;;;;;;;;;;;5056467;28;19938;-59
2022/02/24 13:42:58;;;;;;;;;;;;;;;;;;5055446;28;20366;-58
2022/02/24 13:45:25;;;;;;;;;;;;;;;;;;5055458;28;20000;-61
2022/02/24 13:47:51;;;;;;;;;;;;;;;;;;5055833;28;19909;-63
2022/02/24 13:50:20;;;;;;;;;;;;;;;;;;5055527;28;19912;-60
2022/02/24 13:52:48;;;;;;;;;;;;;;;;;;5056219;28;20381;-59
2022/02/24 13:55:18;;;;;;;;;;;;;;;;;;5056396;28;19909;-61
2022/02/24 13:57:47;;;;;;;;;;;;;;;;;;5056061;28;20003;-59
2022/02/24 14:00:13;;;;;;;;;;;;;;;;;;5056222;28;20004;-64
2022/02/24 14:02:41;;;;;;;;;;;;;;;;;;5038420;28;19917;-64
2022/02/24 14:05:08;;;;;;;;;;;;;;;;;;5055937;28;19909;-61
2022/02/24 14:07:34;;;;;;;;;;;;;;;;;;5056245;28;19955;-62
2022/02/24 14:10:01;;;;;;;;;;;;;;;;;;5055392;28;19916;-60
2022/02/24 14:12:33;;;;;;;;;;;;;;;;;;5056010;28;19940;-58
2022/02/24 14:14:59;;;;;;;;;;;;;;;;;;5056038;28;19916;-57
2022/02/24 14:17:26;;;;;;;;;;;;;;;;;;5055929;28;19912;-59
2022/02/24 14:19:52;;;;;;;;;;;;;;;;;;5055661;28;19951;-61
2022/02/24 14:22:19;;;;;;;;;;;;;;;;;;5055866;28;19913;-60
2022/02/24 14:24:45;;;;;;;;;;;;;;;;;;5037997;28;19952;-60
2022/02/24 14:27:11;;;;;;;;;;;;;;;;;;5055579;28;19999;-59
2022/02/24 14:29:39;;;;;;;;;;;;;;;;;;5055206;28;19909;-59
2022/02/24 14:32:06;;;;;;;;;;;;;;;;;;5055505;28;19909;-59
2022/02/24 14:34:32;;;;;;;;;;;;;;;;;;5055174;28;19948;-59
2022/02/24 14:36:58;;;;;;;;;;;;;;;;;;5055578;28;19962;-56
2022/02/24 14:39:29;;;;;;;;;;;;;;;;;;5055196;28;20270;-54
2022/02/24 14:41:56;;;;;;;;;;;;;;;;;;5054978;28;20003;-53
2022/02/24 14:44:22;;;;;;;;;;;;;;;;;;5055085;28;19971;-61
2022/02/24 14:46:49;;;;;;;;;;;;;;;;;;5055057;28;19955;-59
2022/02/24 14:49:18;;;;;;;;;;;;;;;;;;5054999;28;19997;-61
2022/02/24 14:51:45;;;;;;;;;;;;;;;;;;5054830;28;19943;-61
2022/02/24 14:54:11;;;;;;;;;;;;;;;;;;5055097;28;19909;-61
2022/02/24 14:56:38;;;;;;;;;;;;;;;;;;5055014;28;20343;-60
2022/02/24 14:59:05;;;;;;;;;;;;;;;;;;5054995;28;20323;-59
2022/02/24 15:01:31;;;;;;;;;;;;;;;;;;5054845;28;19920;-58
2022/02/24 15:03:58;;;;;;;;;;;;;;;;;;5054638;28;20003;-57
2022/02/24 15:06:25;;;;;;;;;;;;;;;;;;5054781;28;19908;-57
2022/02/24 15:08:51;;;;;;;;;;;;;;;;;;5054651;28;19999;-59
2022/02/24 15:11:18;;;;;;;;;;;;;;;;;;5054936;28;19909;-59
2022/02/24 15:13:44;;;;;;;;;;;;;;;;;;5054666;28;19909;-59
2022/02/24 15:16:11;;;;;;;;;;;;;;;;;;5054737;28;19988;-57
2022/02/24 15:18:37;;;;;;;;;;;;;;;;;;5054623;28;19917;-58
2022/02/24 15:21:03;;;;;;;;;;;;;;;;;;5053646;28;20355;-58
2022/02/24 15:23:30;;;;;;;;;;;;;;;;;;5054434;28;19952;-58
2022/02/24 15:25:56;;;;;;;;;;;;;;;;;;5054199;28;20366;-61
2022/02/24 15:28:23;;;;;;;;;;;;;;;;;;5054637;28;20282;-60
2022/02/24 15:30:51;;;;;;;;;;;;;;;;;;5054335;28;20304;-61
2022/02/24 15:33:17;;;;;;;;;;;;;;;;;;5054105;28;19955;-57
2022/02/24 15:35:44;;;;;;;;;;;;;;;;;;5053982;28;19908;-57
2022/02/24 15:38:10;;;;;;;;;;;;;;;;;;5054190;28;19952;-59
2022/02/24 15:40:37;;;;;;;;;;;;;;;;;;5053989;28;19981;-58
2022/02/24 15:43:05;;;;;;;;;;;;;;;;;;5054048;28;20012;-60
2022/02/24 15:45:32;;;;;;;;;;;;;;;;;;5053690;28;19994;-60
2022/02/24 15:47:58;;;;;;;;;;;;;;;;;;5053761;28;19960;-61
2022/02/24 15:50:25;;;;;;;;;;;;;;;;;;5054067;28;19909;-59
2022/02/24 15:52:52;;;;;;;;;;;;;;;;;;5053886;28;19909;-63
2022/02/24 15:55:18;;;;;;;;;;;;;;;;;;5053789;28;20363;-59
2022/02/24 15:57:45;;;;;;;;;;;;;;;;;;5053613;28;20269;-60
2022/02/24 16:00:11;;;;;;;;;;;;;;;;;;5053768;28;19916;-59
2022/02/24 16:02:38;;;;;;;;;;;;;;;;;;5053797;28;19916;-59
2022/02/24 16:05:04;;;;;;;;;;;;;;;;;;5053515;28;19909;-58
2022/02/24 16:07:31;;;;;;;;;;;;;;;;;;5053708;28;19908;-61
2022/02/24 16:09:57;;;;;;;;;;;;;;;;;;5053334;28;20393;-56
2022/02/24 16:12:24;;;;;;;;;;;;;;;;;;5053632;28;19979;-60
2022/02/24 16:14:50;;;;;;;;;;;;;;;;;;5053620;28;20429;-58
2022/02/24 16:17:17;;;;;;;;;;;;;;;;;;5053453;28;19909;-58
2022/02/24 16:19:43;;;;;;;;;;;;;;;;;;5049910;28;19916;-62
2022/02/24 16:22:10;;;;;;;;;;;;;;;;;;5053690;28;19916;-59
2022/02/24 16:24:36;;;;;;;;;;;;;;;;;;5052356;28;19908;-57
2022/02/24 16:27:03;;;;;;;;;;;;;;;;;;5052802;28;19909;-59
2022/02/24 16:29:29;;;;;;;;;;;;;;;;;;5053246;28;19908;-59
2022/02/24 16:31:56;;;;;;;;;;;;;;;;;;5052832;28;19909;-59
2022/02/24 16:34:23;;;;;;;;;;;;;;;;;;5052985;28;19999;-58
2022/02/24 16:36:49;;;;;;;;;;;;;;;;;;5053648;28;19913;-61
2022/02/24 16:39:16;;;;;;;;;;;;;;;;;;5053663;28;19909;-61
2022/02/24 16:41:42;;;;;;;;;;;;;;;;;;5052879;28;20413;-60
2022/02/24 16:44:09;;;;;;;;;;;;;;;;;;5053111;28;19920;-60